sensor_id;sensor_type;location;lat;lon;timestamp;temperature;humidity
31975;DHT22;18500;43.618;1.474;2023-06-14T00:02:06;18.00;99.90
31975;DHT22;18500;43.618;1.474;2023-06-14T00:04:33;17.90;99.90
31975;DHT22;18500;43.618;1.474;2023-06-14T00:07:00;17.80;1.00
31975;DHT22;18500;43.618;1.474;2023-06-14T00:09:25;17.80;1.00
31975;DHT22;18500;43.618;1.474;2023-06-14T00:11:51;17.90;1.00
31975;DHT22;18500;43.618;1.474;2023-06-14T00:14:16;18.00;1.00
31975;DHT22;18500;43.618;1.474;2023-06-14T00:16:42;17.90;1.00
31975;DHT22;18500;43.618;1.474;2023-06-14T00:19:10;17.90;1.00
31975;DHT22;18500;43.618;1.474;2023-06-14T00:21:36;18.00;28.30
31975;DHT22;18500;43.618;1.474;2023-06-14T00:24:03;18.10;92.10
31975;DHT22;18500;43.618;1.474;2023-06-14T00:26:29;18.10;99.90
31975;DHT22;18500;43.618;1.474;2023-06-14T00:28:54;18.00;99.90
31975;DHT22;18500;43.618;1.474;2023-06-14T00:31:21;18.10;99.90
31975;DHT22;18500;43.618;1.474;2023-06-14T00:33:47;18.00;99.90
31975;DHT22;18500;43.618;1.474;2023-06-14T00:36:12;18.00;99.90
31975;DHT22;18500;43.618;1.474;2023-06-14T00:38:38;18.00;99.90
31975;DHT22;18500;43.618;1.474;2023-06-14T00:41:03;18.00;99.90
31975;DHT22;18500;43.618;1.474;2023-06-14T00:43:29;17.90;99.90
31975;DHT22;18500;43.618;1.474;2023-06-14T00:45:55;18.00;99.90
31975;DHT22;18500;43.618;1.474;2023-06-14T00:48:20;18.00;99.90
31975;DHT22;18500;43.618;1.474;2023-06-14T00:50:46;18.10;99.90
31975;DHT22;18500;43.618;1.474;2023-06-14T00:53:14;18.00;99.90
31975;DHT22;18500;43.618;1.474;2023-06-14T00:55:40;18.10;99.90
31975;DHT22;18500;43.618;1.474;2023-06-14T00:58:06;18.10;99.90
31975;DHT22;18500;43.618;1.474;2023-06-14T01:00:31;18.10;99.90
31975;DHT22;18500;43.618;1.474;2023-06-14T01:02:57;18.30;99.90
31975;DHT22;18500;43.618;1.474;2023-06-14T01:05:23;18.20;99.90
31975;DHT22;18500;43.618;1.474;2023-06-14T01:08:00;18.30;99.90
31975;DHT22;18500;43.618;1.474;2023-06-14T01:15:50;18.70;99.90
31975;DHT22;18500;43.618;1.474;2023-06-14T01:18:16;18.90;1.00
31975;DHT22;18500;43.618;1.474;2023-06-14T01:20:43;18.90;99.90
31975;DHT22;18500;43.618;1.474;2023-06-14T01:23:10;19.10;99.90
31975;DHT22;18500;43.618;1.474;2023-06-14T01:25:37;19.10;99.90
31975;DHT22;18500;43.618;1.474;2023-06-14T01:28:05;19.10;1.00
31975;DHT22;18500;43.618;1.474;2023-06-14T01:30:36;19.00;1.00
31975;DHT22;18500;43.618;1.474;2023-06-14T01:33:03;19.00;1.00
31975;DHT22;18500;43.618;1.474;2023-06-14T01:35:29;19.00;1.00
31975;DHT22;18500;43.618;1.474;2023-06-14T01:37:55;19.00;1.00
31975;DHT22;18500;43.618;1.474;2023-06-14T01:40:21;19.10;1.00
31975;DHT22;18500;43.618;1.474;2023-06-14T01:42:47;19.00;90.60
31975;DHT22;18500;43.618;1.474;2023-06-14T01:45:14;19.10;99.90
31975;DHT22;18500;43.618;1.474;2023-06-14T01:47:40;19.10;99.90
31975;DHT22;18500;43.618;1.474;2023-06-14T01:50:07;19.10;99.90
31975;DHT22;18500;43.618;1.474;2023-06-14T01:52:33;19.00;99.90
31975;DHT22;18500;43.618;1.474;2023-06-14T01:54:58;19.10;99.90
31975;DHT22;18500;43.618;1.474;2023-06-14T01:57:27;19.10;99.90
31975;DHT22;18500;43.618;1.474;2023-06-14T01:59:53;19.10;99.90
31975;DHT22;18500;43.618;1.474;2023-06-14T02:02:19;19.10;99.90
31975;DHT22;18500;43.618;1.474;2023-06-14T02:04:44;19.20;99.90
31975;DHT22;18500;43.618;1.474;2023-06-14T02:07:12;19.10;99.90
31975;DHT22;18500;43.618;1.474;2023-06-14T02:09:38;19.20;99.90
31975;DHT22;18500;43.618;1.474;2023-06-14T02:12:04;19.10;99.90
31975;DHT22;18500;43.618;1.474;2023-06-14T02:14:30;19.10;99.90
31975;DHT22;18500;43.618;1.474;2023-06-14T02:16:55;19.10;99.90
31975;DHT22;18500;43.618;1.474;2023-06-14T02:19:21;19.00;99.90
31975;DHT22;18500;43.618;1.474;2023-06-14T02:21:47;19.00;99.90
31975;DHT22;18500;43.618;1.474;2023-06-14T02:24:13;19.00;99.90
31975;DHT22;18500;43.618;1.474;2023-06-14T02:26:38;18.90;99.90
31975;DHT22;18500;43.618;1.474;2023-06-14T02:29:04;18.90;99.90
31975;DHT22;18500;43.618;1.474;2023-06-14T02:31:31;18.90;99.90
31975;DHT22;18500;43.618;1.474;2023-06-14T02:33:57;18.80;99.90
31975;DHT22;18500;43.618;1.474;2023-06-14T02:36:23;18.90;99.90
31975;DHT22;18500;43.618;1.474;2023-06-14T02:38:48;18.80;99.90
31975;DHT22;18500;43.618;1.474;2023-06-14T02:41:14;18.90;99.90
31975;DHT22;18500;43.618;1.474;2023-06-14T02:43:39;18.90;99.90
31975;DHT22;18500;43.618;1.474;2023-06-14T02:46:05;18.80;99.90
31975;DHT22;18500;43.618;1.474;2023-06-14T02:48:31;18.70;99.90
31975;DHT22;18500;43.618;1.474;2023-06-14T02:50:57;18.70;99.90
31975;DHT22;18500;43.618;1.474;2023-06-14T02:53:22;18.70;99.90
31975;DHT22;18500;43.618;1.474;2023-06-14T02:55:48;18.80;99.90
31975;DHT22;18500;43.618;1.474;2023-06-14T02:58:13;18.70;99.90
31975;DHT22;18500;43.618;1.474;2023-06-14T03:00:39;18.70;99.90
31975;DHT22;18500;43.618;1.474;2023-06-14T03:03:06;18.70;99.90
31975;DHT22;18500;43.618;1.474;2023-06-14T03:05:48;18.80;99.90
31975;DHT22;18500;43.618;1.474;2023-06-14T03:08:15;18.80;99.90
31975;DHT22;18500;43.618;1.474;2023-06-14T03:10:51;18.70;99.90
31975;DHT22;18500;43.618;1.474;2023-06-14T03:13:16;18.70;99.90
31975;DHT22;18500;43.618;1.474;2023-06-14T03:15:42;18.70;99.90
31975;DHT22;18500;43.618;1.474;2023-06-14T03:18:08;18.70;99.90
31975;DHT22;18500;43.618;1.474;2023-06-14T03:20:35;18.60;99.90
31975;DHT22;18500;43.618;1.474;2023-06-14T03:23:02;18.60;99.90
31975;DHT22;18500;43.618;1.474;2023-06-14T03:25:28;18.60;99.90
31975;DHT22;18500;43.618;1.474;2023-06-14T03:27:57;18.60;99.90
31975;DHT22;18500;43.618;1.474;2023-06-14T03:30:22;18.60;99.90
31975;DHT22;18500;43.618;1.474;2023-06-14T03:32:48;18.50;99.90
31975;DHT22;18500;43.618;1.474;2023-06-14T03:35:13;18.40;99.90
31975;DHT22;18500;43.618;1.474;2023-06-14T03:37:45;18.30;99.90
31975;DHT22;18500;43.618;1.474;2023-06-14T03:40:11;18.20;99.90
31975;DHT22;18500;43.618;1.474;2023-06-14T03:42:36;18.30;99.90
31975;DHT22;18500;43.618;1.474;2023-06-14T03:45:02;18.30;99.90
31975;DHT22;18500;43.618;1.474;2023-06-14T03:47:28;18.20;99.90
31975;DHT22;18500;43.618;1.474;2023-06-14T03:49:53;18.30;99.90
31975;DHT22;18500;43.618;1.474;2023-06-14T03:52:19;18.30;99.90
31975;DHT22;18500;43.618;1.474;2023-06-14T03:54:44;18.30;99.90
31975;DHT22;18500;43.618;1.474;2023-06-14T03:57:10;18.30;99.90
31975;DHT22;18500;43.618;1.474;2023-06-14T03:59:35;18.30;99.90
31975;DHT22;18500;43.618;1.474;2023-06-14T04:02:02;18.40;99.90
31975;DHT22;18500;43.618;1.474;2023-06-14T04:04:27;18.30;99.90
31975;DHT22;18500;43.618;1.474;2023-06-14T04:06:54;18.50;99.90
31975;DHT22;18500;43.618;1.474;2023-06-14T04:09:19;18.40;99.90
31975;DHT22;18500;43.618;1.474;2023-06-14T04:11:45;18.40;99.90
31975;DHT22;18500;43.618;1.474;2023-06-14T04:14:10;18.40;99.90
31975;DHT22;18500;43.618;1.474;2023-06-14T04:16:36;18.50;99.90
31975;DHT22;18500;43.618;1.474;2023-06-14T04:19:02;18.50;99.90
31975;DHT22;18500;43.618;1.474;2023-06-14T04:21:27;18.50;99.90
31975;DHT22;18500;43.618;1.474;2023-06-14T04:23:54;18.40;99.90
31975;DHT22;18500;43.618;1.474;2023-06-14T04:26:21;18.50;99.90
31975;DHT22;18500;43.618;1.474;2023-06-14T04:28:46;18.60;99.90
31975;DHT22;18500;43.618;1.474;2023-06-14T04:31:12;18.50;99.90
31975;DHT22;18500;43.618;1.474;2023-06-14T04:33:38;18.60;99.90
31975;DHT22;18500;43.618;1.474;2023-06-14T04:36:11;18.50;99.90
31975;DHT22;18500;43.618;1.474;2023-06-14T04:38:38;18.50;99.90
31975;DHT22;18500;43.618;1.474;2023-06-14T04:41:03;18.50;99.90
31975;DHT22;18500;43.618;1.474;2023-06-14T04:43:29;18.50;99.90
31975;DHT22;18500;43.618;1.474;2023-06-14T04:45:54;18.50;99.90
31975;DHT22;18500;43.618;1.474;2023-06-14T04:48:21;18.50;99.90
31975;DHT22;18500;43.618;1.474;2023-06-14T04:50:47;18.50;99.90
31975;DHT22;18500;43.618;1.474;2023-06-14T04:53:13;18.60;99.90
31975;DHT22;18500;43.618;1.474;2023-06-14T04:55:40;18.50;99.90
31975;DHT22;18500;43.618;1.474;2023-06-14T04:58:10;18.60;99.90
31975;DHT22;18500;43.618;1.474;2023-06-14T05:00:38;18.50;99.90
31975;DHT22;18500;43.618;1.474;2023-06-14T05:03:03;18.60;99.90
31975;DHT22;18500;43.618;1.474;2023-06-14T05:05:31;18.70;99.90
31975;DHT22;18500;43.618;1.474;2023-06-14T05:07:57;18.70;99.90
31975;DHT22;18500;43.618;1.474;2023-06-14T05:10:23;18.60;99.90
31975;DHT22;18500;43.618;1.474;2023-06-14T05:12:48;18.70;99.90
31975;DHT22;18500;43.618;1.474;2023-06-14T05:15:14;18.60;99.90
31975;DHT22;18500;43.618;1.474;2023-06-14T05:17:40;18.70;99.90
31975;DHT22;18500;43.618;1.474;2023-06-14T05:20:06;18.70;99.90
31975;DHT22;18500;43.618;1.474;2023-06-14T05:22:32;18.80;99.90
31975;DHT22;18500;43.618;1.474;2023-06-14T05:24:57;18.70;99.90
31975;DHT22;18500;43.618;1.474;2023-06-14T05:27:23;18.80;99.90
31975;DHT22;18500;43.618;1.474;2023-06-14T05:29:50;18.90;99.90
31975;DHT22;18500;43.618;1.474;2023-06-14T05:32:15;18.80;99.90
31975;DHT22;18500;43.618;1.474;2023-06-14T05:34:42;18.90;99.90
31975;DHT22;18500;43.618;1.474;2023-06-14T05:37:08;18.90;99.90
31975;DHT22;18500;43.618;1.474;2023-06-14T05:39:33;18.90;99.90
31975;DHT22;18500;43.618;1.474;2023-06-14T05:41:59;18.90;99.90
31975;DHT22;18500;43.618;1.474;2023-06-14T05:44:24;18.90;99.90
31975;DHT22;18500;43.618;1.474;2023-06-14T05:46:50;18.90;99.90
31975;DHT22;18500;43.618;1.474;2023-06-14T05:49:15;18.90;99.90
31975;DHT22;18500;43.618;1.474;2023-06-14T05:51:41;18.90;99.90
31975;DHT22;18500;43.618;1.474;2023-06-14T05:54:06;18.90;99.90
31975;DHT22;18500;43.618;1.474;2023-06-14T05:56:32;18.90;99.90
31975;DHT22;18500;43.618;1.474;2023-06-14T05:58:57;19.00;99.90
31975;DHT22;18500;43.618;1.474;2023-06-14T06:01:23;19.00;99.90
31975;DHT22;18500;43.618;1.474;2023-06-14T06:03:48;19.00;99.90
31975;DHT22;18500;43.618;1.474;2023-06-14T06:06:14;19.10;99.90
31975;DHT22;18500;43.618;1.474;2023-06-14T06:08:40;19.20;99.90
31975;DHT22;18500;43.618;1.474;2023-06-14T06:11:05;19.10;99.90
31975;DHT22;18500;43.618;1.474;2023-06-14T06:13:31;19.20;99.90
31975;DHT22;18500;43.618;1.474;2023-06-14T06:15:57;19.10;99.90
31975;DHT22;18500;43.618;1.474;2023-06-14T06:18:22;19.20;99.90
31975;DHT22;18500;43.618;1.474;2023-06-14T06:20:48;19.10;99.90
31975;DHT22;18500;43.618;1.474;2023-06-14T06:23:14;19.10;99.90
31975;DHT22;18500;43.618;1.474;2023-06-14T06:25:40;19.10;99.90
31975;DHT22;18500;43.618;1.474;2023-06-14T06:28:05;19.20;99.90
31975;DHT22;18500;43.618;1.474;2023-06-14T06:30:31;19.10;99.90
31975;DHT22;18500;43.618;1.474;2023-06-14T06:32:57;19.30;99.90
31975;DHT22;18500;43.618;1.474;2023-06-14T06:35:22;19.30;99.90
31975;DHT22;18500;43.618;1.474;2023-06-14T06:37:48;19.20;99.90
31975;DHT22;18500;43.618;1.474;2023-06-14T06:40:13;19.30;99.90
31975;DHT22;18500;43.618;1.474;2023-06-14T06:42:39;19.30;99.90
31975;DHT22;18500;43.618;1.474;2023-06-14T06:45:05;19.30;99.90
31975;DHT22;18500;43.618;1.474;2023-06-14T06:47:31;19.30;99.90
31975;DHT22;18500;43.618;1.474;2023-06-14T06:49:56;19.40;99.90
31975;DHT22;18500;43.618;1.474;2023-06-14T06:52:22;19.40;99.90
31975;DHT22;18500;43.618;1.474;2023-06-14T06:54:47;19.50;99.90
31975;DHT22;18500;43.618;1.474;2023-06-14T06:57:14;19.40;99.90
31975;DHT22;18500;43.618;1.474;2023-06-14T06:59:40;19.50;99.90
31975;DHT22;18500;43.618;1.474;2023-06-14T07:02:05;19.60;99.90
31975;DHT22;18500;43.618;1.474;2023-06-14T07:04:31;19.50;99.90
31975;DHT22;18500;43.618;1.474;2023-06-14T07:06:57;19.60;99.90
31975;DHT22;18500;43.618;1.474;2023-06-14T07:09:22;19.60;99.90
31975;DHT22;18500;43.618;1.474;2023-06-14T07:11:48;19.50;99.90
31975;DHT22;18500;43.618;1.474;2023-06-14T07:14:13;19.60;99.90
31975;DHT22;18500;43.618;1.474;2023-06-14T07:16:39;19.60;99.90
31975;DHT22;18500;43.618;1.474;2023-06-14T07:19:04;19.60;99.90
31975;DHT22;18500;43.618;1.474;2023-06-14T07:21:30;19.60;99.90
31975;DHT22;18500;43.618;1.474;2023-06-14T07:23:56;19.60;99.90
31975;DHT22;18500;43.618;1.474;2023-06-14T07:26:21;19.60;99.90
31975;DHT22;18500;43.618;1.474;2023-06-14T07:28:47;19.50;99.90
31975;DHT22;18500;43.618;1.474;2023-06-14T07:31:14;19.60;99.90
31975;DHT22;18500;43.618;1.474;2023-06-14T07:33:40;19.60;99.90
31975;DHT22;18500;43.618;1.474;2023-06-14T07:36:06;19.60;99.90
31975;DHT22;18500;43.618;1.474;2023-06-14T07:38:32;19.60;99.90
31975;DHT22;18500;43.618;1.474;2023-06-14T07:40:57;19.50;99.90
31975;DHT22;18500;43.618;1.474;2023-06-14T07:43:23;19.60;99.90
31975;DHT22;18500;43.618;1.474;2023-06-14T07:45:48;19.70;99.90
31975;DHT22;18500;43.618;1.474;2023-06-14T07:48:14;19.60;99.90
31975;DHT22;18500;43.618;1.474;2023-06-14T07:50:40;19.70;99.90
31975;DHT22;18500;43.618;1.474;2023-06-14T07:53:06;19.80;99.90
31975;DHT22;18500;43.618;1.474;2023-06-14T07:55:31;19.80;99.90
31975;DHT22;18500;43.618;1.474;2023-06-14T07:57:58;19.70;99.90
31975;DHT22;18500;43.618;1.474;2023-06-14T08:00:23;19.80;99.90
31975;DHT22;18500;43.618;1.474;2023-06-14T08:02:49;19.80;99.90
31975;DHT22;18500;43.618;1.474;2023-06-14T08:05:17;19.80;99.90
31975;DHT22;18500;43.618;1.474;2023-06-14T08:07:42;19.80;99.90
31975;DHT22;18500;43.618;1.474;2023-06-14T08:10:08;19.80;99.90
31975;DHT22;18500;43.618;1.474;2023-06-14T08:12:34;19.90;99.90
31975;DHT22;18500;43.618;1.474;2023-06-14T08:15:00;20.00;99.90
31975;DHT22;18500;43.618;1.474;2023-06-14T08:17:26;20.00;99.90
31975;DHT22;18500;43.618;1.474;2023-06-14T08:19:52;20.00;99.90
31975;DHT22;18500;43.618;1.474;2023-06-14T08:22:20;20.10;99.90
31975;DHT22;18500;43.618;1.474;2023-06-14T08:24:47;20.30;99.90
31975;DHT22;18500;43.618;1.474;2023-06-14T08:27:12;20.50;99.90
31975;DHT22;18500;43.618;1.474;2023-06-14T08:29:38;20.70;99.90
31975;DHT22;18500;43.618;1.474;2023-06-14T08:32:06;20.80;99.90
31975;DHT22;18500;43.618;1.474;2023-06-14T08:34:31;20.90;99.90
31975;DHT22;18500;43.618;1.474;2023-06-14T08:36:57;20.80;99.90
31975;DHT22;18500;43.618;1.474;2023-06-14T08:39:23;20.80;99.90
31975;DHT22;18500;43.618;1.474;2023-06-14T08:41:48;20.80;99.90
31975;DHT22;18500;43.618;1.474;2023-06-14T08:44:16;20.60;99.90
31975;DHT22;18500;43.618;1.474;2023-06-14T08:46:42;20.40;99.90
31975;DHT22;18500;43.618;1.474;2023-06-14T08:49:08;20.60;99.90
31975;DHT22;18500;43.618;1.474;2023-06-14T08:51:35;20.70;99.90
31975;DHT22;18500;43.618;1.474;2023-06-14T08:54:02;20.50;99.90
31975;DHT22;18500;43.618;1.474;2023-06-14T08:56:29;20.50;99.90
31975;DHT22;18500;43.618;1.474;2023-06-14T08:58:56;20.60;99.90
31975;DHT22;18500;43.618;1.474;2023-06-14T09:01:22;20.90;99.90
31975;DHT22;18500;43.618;1.474;2023-06-14T09:03:48;21.10;99.90
31975;DHT22;18500;43.618;1.474;2023-06-14T09:06:14;20.90;99.90
31975;DHT22;18500;43.618;1.474;2023-06-14T09:08:44;21.00;99.90
31975;DHT22;18500;43.618;1.474;2023-06-14T09:11:13;20.70;99.90
31975;DHT22;18500;43.618;1.474;2023-06-14T09:13:39;20.90;99.90
31975;DHT22;18500;43.618;1.474;2023-06-14T09:16:08;20.60;99.90
31975;DHT22;18500;43.618;1.474;2023-06-14T09:18:35;20.40;99.90
31975;DHT22;18500;43.618;1.474;2023-06-14T09:21:00;20.80;99.90
31975;DHT22;18500;43.618;1.474;2023-06-14T09:23:26;20.70;99.90
31975;DHT22;18500;43.618;1.474;2023-06-14T09:25:51;20.80;99.90
31975;DHT22;18500;43.618;1.474;2023-06-14T09:28:17;21.10;99.90
31975;DHT22;18500;43.618;1.474;2023-06-14T09:30:42;21.40;99.90
31975;DHT22;18500;43.618;1.474;2023-06-14T09:33:08;21.70;99.90
31975;DHT22;18500;43.618;1.474;2023-06-14T09:35:34;21.60;99.90
31975;DHT22;18500;43.618;1.474;2023-06-14T09:37:59;21.20;99.90
31975;DHT22;18500;43.618;1.474;2023-06-14T09:40:26;20.40;99.90
31975;DHT22;18500;43.618;1.474;2023-06-14T09:42:51;20.90;99.90
31975;DHT22;18500;43.618;1.474;2023-06-14T09:45:17;21.00;99.90
31975;DHT22;18500;43.618;1.474;2023-06-14T09:47:49;21.40;99.90
31975;DHT22;18500;43.618;1.474;2023-06-14T09:50:15;21.40;99.90
31975;DHT22;18500;43.618;1.474;2023-06-14T09:52:41;20.90;99.90
31975;DHT22;18500;43.618;1.474;2023-06-14T09:55:11;21.10;99.90
31975;DHT22;18500;43.618;1.474;2023-06-14T09:57:37;20.90;99.90
31975;DHT22;18500;43.618;1.474;2023-06-14T10:00:04;20.90;99.90
31975;DHT22;18500;43.618;1.474;2023-06-14T10:02:36;20.70;99.90
31975;DHT22;18500;43.618;1.474;2023-06-14T10:05:03;20.90;99.90
31975;DHT22;18500;43.618;1.474;2023-06-14T10:10:06;20.90;99.90
31975;DHT22;18500;43.618;1.474;2023-06-14T10:12:32;21.00;99.90
31975;DHT22;18500;43.618;1.474;2023-06-14T10:14:57;20.50;99.90
31975;DHT22;18500;43.618;1.474;2023-06-14T10:19:56;20.80;1.00
31975;DHT22;18500;43.618;1.474;2023-06-14T10:22:30;20.80;99.90
31975;DHT22;18500;43.618;1.474;2023-06-14T10:24:57;20.90;99.90
31975;DHT22;18500;43.618;1.474;2023-06-14T10:27:23;20.90;99.90
31975;DHT22;18500;43.618;1.474;2023-06-14T10:32:24;20.70;1.00
31975;DHT22;18500;43.618;1.474;2023-06-14T10:34:54;20.50;1.00
31975;DHT22;18500;43.618;1.474;2023-06-14T10:37:20;21.60;99.90
31975;DHT22;18500;43.618;1.474;2023-06-14T10:39:46;22.20;99.90
31975;DHT22;18500;43.618;1.474;2023-06-14T10:42:12;22.70;76.60
31975;DHT22;18500;43.618;1.474;2023-06-14T10:44:39;22.70;36.80
31975;DHT22;18500;43.618;1.474;2023-06-14T10:49:50;23.80;1.00
31975;DHT22;18500;43.618;1.474;2023-06-14T10:52:16;24.10;1.00
31975;DHT22;18500;43.618;1.474;2023-06-14T10:57:29;23.20;1.00
31975;DHT22;18500;43.618;1.474;2023-06-14T10:59:57;23.10;1.00
31975;DHT22;18500;43.618;1.474;2023-06-14T11:04:54;23.80;1.00
31975;DHT22;18500;43.618;1.474;2023-06-14T11:10:05;24.60;1.00
31975;DHT22;18500;43.618;1.474;2023-06-14T11:12:35;24.50;1.00
31975;DHT22;18500;43.618;1.474;2023-06-14T11:15:02;24.40;1.00
31975;DHT22;18500;43.618;1.474;2023-06-14T11:17:28;24.40;1.00
31975;DHT22;18500;43.618;1.474;2023-06-14T11:20:08;24.10;1.00
31975;DHT22;18500;43.618;1.474;2023-06-14T11:22:41;23.70;1.00
31975;DHT22;18500;43.618;1.474;2023-06-14T11:25:08;23.60;1.00
31975;DHT22;18500;43.618;1.474;2023-06-14T11:27:34;24.00;1.00
31975;DHT22;18500;43.618;1.474;2023-06-14T11:29:59;25.00;1.00
31975;DHT22;18500;43.618;1.474;2023-06-14T11:32:25;24.40;1.00
31975;DHT22;18500;43.618;1.474;2023-06-14T11:34:50;24.10;1.00
31975;DHT22;18500;43.618;1.474;2023-06-14T11:37:17;24.30;1.00
31975;DHT22;18500;43.618;1.474;2023-06-14T11:39:45;24.90;1.00
31975;DHT22;18500;43.618;1.474;2023-06-14T11:42:17;25.20;1.00
31975;DHT22;18500;43.618;1.474;2023-06-14T11:44:46;25.20;1.00
31975;DHT22;18500;43.618;1.474;2023-06-14T11:47:12;24.90;1.00
31975;DHT22;18500;43.618;1.474;2023-06-14T11:49:38;24.40;1.00
31975;DHT22;18500;43.618;1.474;2023-06-14T11:52:03;24.70;1.00
31975;DHT22;18500;43.618;1.474;2023-06-14T11:54:29;24.50;1.00
31975;DHT22;18500;43.618;1.474;2023-06-14T11:56:55;24.10;1.00
31975;DHT22;18500;43.618;1.474;2023-06-14T11:59:20;24.30;1.00
31975;DHT22;18500;43.618;1.474;2023-06-14T12:01:47;25.30;1.00
31975;DHT22;18500;43.618;1.474;2023-06-14T12:04:13;25.10;1.00
31975;DHT22;18500;43.618;1.474;2023-06-14T12:06:38;24.50;1.00
31975;DHT22;18500;43.618;1.474;2023-06-14T12:09:05;24.20;1.00
31975;DHT22;18500;43.618;1.474;2023-06-14T12:11:38;24.50;1.00
31975;DHT22;18500;43.618;1.474;2023-06-14T12:14:07;25.30;1.00
31975;DHT22;18500;43.618;1.474;2023-06-14T12:16:34;25.30;1.00
31975;DHT22;18500;43.618;1.474;2023-06-14T12:19:07;24.50;1.00
31975;DHT22;18500;43.618;1.474;2023-06-14T12:21:32;24.70;1.00
31975;DHT22;18500;43.618;1.474;2023-06-14T12:24:02;25.30;1.00
31975;DHT22;18500;43.618;1.474;2023-06-14T12:26:28;25.30;1.00
31975;DHT22;18500;43.618;1.474;2023-06-14T12:28:54;25.10;1.00
31975;DHT22;18500;43.618;1.474;2023-06-14T12:31:19;25.60;1.00
31975;DHT22;18500;43.618;1.474;2023-06-14T12:33:46;25.70;1.00
31975;DHT22;18500;43.618;1.474;2023-06-14T12:36:14;26.90;1.00
31975;DHT22;18500;43.618;1.474;2023-06-14T12:38:40;31.30;1.00
31975;DHT22;18500;43.618;1.474;2023-06-14T12:41:06;33.50;1.00
31975;DHT22;18500;43.618;1.474;2023-06-14T12:43:33;33.00;1.00
31975;DHT22;18500;43.618;1.474;2023-06-14T12:45:59;28.80;1.00
31975;DHT22;18500;43.618;1.474;2023-06-14T12:48:24;31.40;1.00
31975;DHT22;18500;43.618;1.474;2023-06-14T12:50:50;33.30;1.00
31975;DHT22;18500;43.618;1.474;2023-06-14T12:53:15;32.30;1.00
31975;DHT22;18500;43.618;1.474;2023-06-14T12:55:42;30.00;1.00
31975;DHT22;18500;43.618;1.474;2023-06-14T12:58:07;33.00;1.00
31975;DHT22;18500;43.618;1.474;2023-06-14T13:00:33;32.40;1.00
31975;DHT22;18500;43.618;1.474;2023-06-14T13:02:59;33.50;1.00
31975;DHT22;18500;43.618;1.474;2023-06-14T13:05:24;33.80;1.00
31975;DHT22;18500;43.618;1.474;2023-06-14T13:07:50;34.20;1.00
31975;DHT22;18500;43.618;1.474;2023-06-14T13:10:16;34.30;1.00
31975;DHT22;18500;43.618;1.474;2023-06-14T13:12:41;29.40;1.00
31975;DHT22;18500;43.618;1.474;2023-06-14T13:15:07;29.20;1.00
31975;DHT22;18500;43.618;1.474;2023-06-14T13:17:33;33.60;1.00
31975;DHT22;18500;43.618;1.474;2023-06-14T13:20:06;36.30;1.00
31975;DHT22;18500;43.618;1.474;2023-06-14T13:22:32;34.30;1.00
31975;DHT22;18500;43.618;1.474;2023-06-14T13:24:57;34.50;1.00
31975;DHT22;18500;43.618;1.474;2023-06-14T13:27:23;32.90;1.00
31975;DHT22;18500;43.618;1.474;2023-06-14T13:29:49;30.80;1.00
31975;DHT22;18500;43.618;1.474;2023-06-14T13:32:15;29.10;1.00
31975;DHT22;18500;43.618;1.474;2023-06-14T13:34:40;28.30;1.00
31975;DHT22;18500;43.618;1.474;2023-06-14T13:37:06;28.00;1.00
31975;DHT22;18500;43.618;1.474;2023-06-14T13:39:31;29.20;1.00
31975;DHT22;18500;43.618;1.474;2023-06-14T13:41:57;29.50;1.00
31975;DHT22;18500;43.618;1.474;2023-06-14T13:44:22;32.10;1.00
31975;DHT22;18500;43.618;1.474;2023-06-14T13:46:48;30.20;1.00
31975;DHT22;18500;43.618;1.474;2023-06-14T13:49:13;29.40;1.00
31975;DHT22;18500;43.618;1.474;2023-06-14T13:51:39;35.30;1.00
31975;DHT22;18500;43.618;1.474;2023-06-14T13:54:05;31.90;1.00
31975;DHT22;18500;43.618;1.474;2023-06-14T13:56:30;29.30;1.00
31975;DHT22;18500;43.618;1.474;2023-06-14T13:58:56;27.90;1.00
31975;DHT22;18500;43.618;1.474;2023-06-14T14:01:21;30.10;1.00
31975;DHT22;18500;43.618;1.474;2023-06-14T14:03:48;34.20;1.00
31975;DHT22;18500;43.618;1.474;2023-06-14T14:06:15;33.80;1.00
31975;DHT22;18500;43.618;1.474;2023-06-14T14:08:41;32.90;1.00
31975;DHT22;18500;43.618;1.474;2023-06-14T14:11:07;30.10;1.00
31975;DHT22;18500;43.618;1.474;2023-06-14T14:13:33;31.20;1.00
31975;DHT22;18500;43.618;1.474;2023-06-14T14:15:59;32.20;1.00
31975;DHT22;18500;43.618;1.474;2023-06-14T14:18:25;33.20;1.00
31975;DHT22;18500;43.618;1.474;2023-06-14T14:20:50;33.40;1.00
31975;DHT22;18500;43.618;1.474;2023-06-14T14:23:16;35.40;1.00
31975;DHT22;18500;43.618;1.474;2023-06-14T14:25:41;31.70;1.00
31975;DHT22;18500;43.618;1.474;2023-06-14T14:28:07;30.90;1.00
31975;DHT22;18500;43.618;1.474;2023-06-14T14:30:32;31.50;1.00
31975;DHT22;18500;43.618;1.474;2023-06-14T14:32:59;29.30;1.00
31975;DHT22;18500;43.618;1.474;2023-06-14T14:35:24;31.60;1.00
31975;DHT22;18500;43.618;1.474;2023-06-14T14:37:55;28.20;1.00
31975;DHT22;18500;43.618;1.474;2023-06-14T14:40:21;29.70;1.00
31975;DHT22;18500;43.618;1.474;2023-06-14T14:42:47;29.90;1.00
31975;DHT22;18500;43.618;1.474;2023-06-14T14:45:12;29.20;1.00
31975;DHT22;18500;43.618;1.474;2023-06-14T14:47:38;30.90;1.00
31975;DHT22;18500;43.618;1.474;2023-06-14T14:50:04;27.80;1.00
31975;DHT22;18500;43.618;1.474;2023-06-14T14:52:29;26.40;1.00
31975;DHT22;18500;43.618;1.474;2023-06-14T14:54:55;25.80;1.00
31975;DHT22;18500;43.618;1.474;2023-06-14T14:57:21;25.70;1.00
31975;DHT22;18500;43.618;1.474;2023-06-14T14:59:46;25.50;1.00
31975;DHT22;18500;43.618;1.474;2023-06-14T15:02:12;25.50;1.00
31975;DHT22;18500;43.618;1.474;2023-06-14T15:04:37;26.20;1.00
31975;DHT22;18500;43.618;1.474;2023-06-14T15:07:03;27.30;1.00
31975;DHT22;18500;43.618;1.474;2023-06-14T15:09:28;27.20;1.00
31975;DHT22;18500;43.618;1.474;2023-06-14T15:11:54;26.60;1.00
31975;DHT22;18500;43.618;1.474;2023-06-14T15:14:19;26.50;1.00
31975;DHT22;18500;43.618;1.474;2023-06-14T15:16:45;25.90;1.00
31975;DHT22;18500;43.618;1.474;2023-06-14T15:19:10;26.10;1.00
31975;DHT22;18500;43.618;1.474;2023-06-14T15:21:36;26.00;1.00
31975;DHT22;18500;43.618;1.474;2023-06-14T15:24:01;26.20;1.00
31975;DHT22;18500;43.618;1.474;2023-06-14T15:26:27;25.90;1.00
31975;DHT22;18500;43.618;1.474;2023-06-14T15:28:54;26.10;1.00
31975;DHT22;18500;43.618;1.474;2023-06-14T15:31:19;26.10;1.00
31975;DHT22;18500;43.618;1.474;2023-06-14T15:33:45;26.00;1.00
31975;DHT22;18500;43.618;1.474;2023-06-14T15:36:10;25.60;1.00
31975;DHT22;18500;43.618;1.474;2023-06-14T15:38:36;25.60;1.00
31975;DHT22;18500;43.618;1.474;2023-06-14T15:41:02;25.80;1.00
31975;DHT22;18500;43.618;1.474;2023-06-14T15:43:28;25.80;1.00
31975;DHT22;18500;43.618;1.474;2023-06-14T15:45:54;25.70;1.00
31975;DHT22;18500;43.618;1.474;2023-06-14T15:48:19;25.80;1.00
31975;DHT22;18500;43.618;1.474;2023-06-14T15:50:45;25.40;1.00
31975;DHT22;18500;43.618;1.474;2023-06-14T15:53:11;25.60;1.00
31975;DHT22;18500;43.618;1.474;2023-06-14T15:55:36;25.50;1.00